sensor_id;sensor_type;location;lat;lon;timestamp;P1;durP1;ratioP1;P2;durP2;ratioP2
22677;SDS011;26259;50.214;18.620;2022-12-16T00:00:15;121.27;;;50.50;;
22677;SDS011;26259;50.214;18.620;2022-12-16T00:02:41;106.40;;;47.37;;
22677;SDS011;26259;50.214;18.620;2022-12-16T00:05:07;108.07;;;47.90;;
22677;SDS011;26259;50.214;18.620;2022-12-16T00:07:33;108.10;;;47.47;;
22677;SDS011;26259;50.214;18.620;2022-12-16T00:09:59;121.20;;;51.13;;
22677;SDS011;26259;50.214;18.620;2022-12-16T00:12:24;120.20;;;53.77;;
22677;SDS011;26259;50.214;18.620;2022-12-16T00:14:51;123.77;;;53.17;;
22677;SDS011;26259;50.214;18.620;2022-12-16T00:17:16;127.37;;;53.87;;
22677;SDS011;26259;50.214;18.620;2022-12-16T00:19:42;123.63;;;55.27;;
22677;SDS011;26259;50.214;18.620;2022-12-16T00:22:08;127.37;;;52.63;;
22677;SDS011;26259;50.214;18.620;2022-12-16T00:24:33;119.97;;;53.80;;
22677;SDS011;26259;50.214;18.620;2022-12-16T00:26:59;132.87;;;55.50;;
22677;SDS011;26259;50.214;18.620;2022-12-16T00:29:24;117.70;;;53.87;;
22677;SDS011;26259;50.214;18.620;2022-12-16T00:31:50;121.13;;;52.10;;
22677;SDS011;26259;50.214;18.620;2022-12-16T00:34:16;117.70;;;53.10;;
22677;SDS011;26259;50.214;18.620;2022-12-16T00:36:42;121.17;;;53.30;;
22677;SDS011;26259;50.214;18.620;2022-12-16T00:39:08;123.27;;;53.67;;
22677;SDS011;26259;50.214;18.620;2022-12-16T00:41:34;126.40;;;53.30;;
22677;SDS011;26259;50.214;18.620;2022-12-16T00:44:00;112.43;;;51.83;;
22677;SDS011;26259;50.214;18.620;2022-12-16T00:46:26;109.87;;;50.20;;
22677;SDS011;26259;50.214;18.620;2022-12-16T00:48:52;110.50;;;51.20;;
22677;SDS011;26259;50.214;18.620;2022-12-16T00:51:18;115.47;;;51.87;;
22677;SDS011;26259;50.214;18.620;2022-12-16T00:53:44;106.90;;;48.70;;
22677;SDS011;26259;50.214;18.620;2022-12-16T00:56:10;111.50;;;51.47;;
22677;SDS011;26259;50.214;18.620;2022-12-16T00:58:38;116.57;;;50.67;;
22677;SDS011;26259;50.214;18.620;2022-12-16T01:01:05;108.27;;;48.40;;
22677;SDS011;26259;50.214;18.620;2022-12-16T01:03:33;106.23;;;49.57;;
22677;SDS011;26259;50.214;18.620;2022-12-16T01:05:59;106.37;;;50.80;;
22677;SDS011;26259;50.214;18.620;2022-12-16T01:08:25;107.67;;;50.80;;
22677;SDS011;26259;50.214;18.620;2022-12-16T01:10:52;114.63;;;51.17;;
22677;SDS011;26259;50.214;18.620;2022-12-16T01:13:19;116.17;;;50.70;;
22677;SDS011;26259;50.214;18.620;2022-12-16T01:15:45;111.47;;;50.97;;
22677;SDS011;26259;50.214;18.620;2022-12-16T01:18:11;103.43;;;48.63;;
22677;SDS011;26259;50.214;18.620;2022-12-16T01:20:36;104.30;;;48.30;;
22677;SDS011;26259;50.214;18.620;2022-12-16T01:23:02;102.97;;;48.47;;
22677;SDS011;26259;50.214;18.620;2022-12-16T01:25:28;107.57;;;50.73;;
22677;SDS011;26259;50.214;18.620;2022-12-16T01:27:54;105.63;;;49.83;;
22677;SDS011;26259;50.214;18.620;2022-12-16T01:30:19;101.07;;;49.10;;
22677;SDS011;26259;50.214;18.620;2022-12-16T01:32:45;105.47;;;47.37;;
22677;SDS011;26259;50.214;18.620;2022-12-16T01:35:10;105.57;;;48.23;;
22677;SDS011;26259;50.214;18.620;2022-12-16T01:37:37;100.03;;;45.83;;
22677;SDS011;26259;50.214;18.620;2022-12-16T01:40:03;92.27;;;42.07;;
22677;SDS011;26259;50.214;18.620;2022-12-16T01:42:29;95.83;;;44.33;;
22677;SDS011;26259;50.214;18.620;2022-12-16T01:44:57;98.67;;;43.13;;
22677;SDS011;26259;50.214;18.620;2022-12-16T01:47:48;100.40;;;44.37;;
22677;SDS011;26259;50.214;18.620;2022-12-16T01:50:15;92.47;;;40.40;;
22677;SDS011;26259;50.214;18.620;2022-12-16T01:52:43;90.77;;;42.20;;
22677;SDS011;26259;50.214;18.620;2022-12-16T01:55:12;94.70;;;43.77;;
22677;SDS011;26259;50.214;18.620;2022-12-16T01:57:46;93.50;;;42.50;;
22677;SDS011;26259;50.214;18.620;2022-12-16T02:00:15;89.33;;;41.20;;
22677;SDS011;26259;50.214;18.620;2022-12-16T02:02:42;90.07;;;41.83;;
22677;SDS011;26259;50.214;18.620;2022-12-16T02:05:10;94.13;;;40.97;;
22677;SDS011;26259;50.214;18.620;2022-12-16T02:10:45;93.10;;;41.27;;
22677;SDS011;26259;50.214;18.620;2022-12-16T02:13:36;87.73;;;39.60;;
22677;SDS011;26259;50.214;18.620;2022-12-16T02:24:17;93.93;;;42.97;;
22677;SDS011;26259;50.214;18.620;2022-12-16T02:27:02;86.37;;;40.20;;
22677;SDS011;26259;50.214;18.620;2022-12-16T02:34:59;91.73;;;42.97;;
22677;SDS011;26259;50.214;18.620;2022-12-16T02:37:41;89.30;;;42.57;;
22677;SDS011;26259;50.214;18.620;2022-12-16T02:40:35;95.30;;;42.90;;
22677;SDS011;26259;50.214;18.620;2022-12-16T02:43:11;102.13;;;44.53;;
22677;SDS011;26259;50.214;18.620;2022-12-16T02:45:46;95.47;;;43.90;;
22677;SDS011;26259;50.214;18.620;2022-12-16T02:48:12;102.23;;;45.10;;
22677;SDS011;26259;50.214;18.620;2022-12-16T02:50:39;92.23;;;41.13;;
22677;SDS011;26259;50.214;18.620;2022-12-16T02:53:11;102.23;;;45.13;;
22677;SDS011;26259;50.214;18.620;2022-12-16T02:55:53;100.77;;;45.77;;
22677;SDS011;26259;50.214;18.620;2022-12-16T02:58:27;103.30;;;44.67;;
22677;SDS011;26259;50.214;18.620;2022-12-16T03:03:39;106.27;;;47.03;;
22677;SDS011;26259;50.214;18.620;2022-12-16T03:06:10;99.30;;;46.07;;
22677;SDS011;26259;50.214;18.620;2022-12-16T03:08:39;92.70;;;44.13;;
22677;SDS011;26259;50.214;18.620;2022-12-16T03:11:08;106.30;;;46.57;;
22677;SDS011;26259;50.214;18.620;2022-12-16T03:13:36;100.50;;;45.47;;
22677;SDS011;26259;50.214;18.620;2022-12-16T03:16:06;100.67;;;45.33;;
22677;SDS011;26259;50.214;18.620;2022-12-16T03:18:34;107.63;;;47.53;;
22677;SDS011;26259;50.214;18.620;2022-12-16T03:21:03;107.90;;;46.13;;
22677;SDS011;26259;50.214;18.620;2022-12-16T03:23:32;108.53;;;47.77;;
22677;SDS011;26259;50.214;18.620;2022-12-16T03:26:07;98.03;;;44.57;;
22677;SDS011;26259;50.214;18.620;2022-12-16T03:28:43;99.37;;;44.83;;
22677;SDS011;26259;50.214;18.620;2022-12-16T03:31:17;101.97;;;46.20;;
22677;SDS011;26259;50.214;18.620;2022-12-16T03:33:47;106.50;;;44.43;;
22677;SDS011;26259;50.214;18.620;2022-12-16T03:36:20;100.20;;;44.10;;
22677;SDS011;26259;50.214;18.620;2022-12-16T03:38:48;100.70;;;43.73;;
22677;SDS011;26259;50.214;18.620;2022-12-16T03:41:15;103.20;;;44.63;;
22677;SDS011;26259;50.214;18.620;2022-12-16T03:43:43;100.67;;;42.97;;
22677;SDS011;26259;50.214;18.620;2022-12-16T03:46:09;92.83;;;42.80;;
22677;SDS011;26259;50.214;18.620;2022-12-16T03:48:35;92.50;;;42.53;;
22677;SDS011;26259;50.214;18.620;2022-12-16T03:51:10;96.90;;;42.77;;
22677;SDS011;26259;50.214;18.620;2022-12-16T03:53:36;95.93;;;44.47;;
22677;SDS011;26259;50.214;18.620;2022-12-16T03:56:01;103.27;;;43.20;;
22677;SDS011;26259;50.214;18.620;2022-12-16T03:58:27;91.63;;;42.23;;
22677;SDS011;26259;50.214;18.620;2022-12-16T04:00:52;96.83;;;43.13;;
22677;SDS011;26259;50.214;18.620;2022-12-16T04:03:18;90.87;;;43.13;;
22677;SDS011;26259;50.214;18.620;2022-12-16T04:05:46;90.47;;;43.47;;
22677;SDS011;26259;50.214;18.620;2022-12-16T04:08:12;89.07;;;43.63;;
22677;SDS011;26259;50.214;18.620;2022-12-16T04:10:38;93.87;;;41.80;;
22677;SDS011;26259;50.214;18.620;2022-12-16T04:13:22;89.10;;;42.13;;
22677;SDS011;26259;50.214;18.620;2022-12-16T04:16:07;96.00;;;42.63;;
22677;SDS011;26259;50.214;18.620;2022-12-16T04:18:59;88.50;;;42.27;;
22677;SDS011;26259;50.214;18.620;2022-12-16T04:21:44;87.47;;;41.80;;
22677;SDS011;26259;50.214;18.620;2022-12-16T04:24:28;84.00;;;41.80;;
22677;SDS011;26259;50.214;18.620;2022-12-16T04:26:54;93.47;;;41.93;;
22677;SDS011;26259;50.214;18.620;2022-12-16T04:29:39;91.73;;;44.47;;
22677;SDS011;26259;50.214;18.620;2022-12-16T04:32:23;87.63;;;42.97;;
22677;SDS011;26259;50.214;18.620;2022-12-16T04:34:49;98.90;;;45.60;;
22677;SDS011;26259;50.214;18.620;2022-12-16T04:37:16;92.83;;;45.83;;
22677;SDS011;26259;50.214;18.620;2022-12-16T04:40:00;103.20;;;47.07;;
22677;SDS011;26259;50.214;18.620;2022-12-16T04:42:44;98.87;;;47.77;;
22677;SDS011;26259;50.214;18.620;2022-12-16T04:45:28;106.50;;;45.83;;
22677;SDS011;26259;50.214;18.620;2022-12-16T04:48:12;89.40;;;45.13;;
22677;SDS011;26259;50.214;18.620;2022-12-16T04:50:56;89.13;;;44.53;;
22677;SDS011;26259;50.214;18.620;2022-12-16T04:53:40;95.27;;;45.27;;
22677;SDS011;26259;50.214;18.620;2022-12-16T04:56:24;98.67;;;46.13;;
22677;SDS011;26259;50.214;18.620;2022-12-16T04:59:08;97.30;;;46.33;;
22677;SDS011;26259;50.214;18.620;2022-12-16T05:01:52;89.67;;;45.33;;
22677;SDS011;26259;50.214;18.620;2022-12-16T05:04:36;94.10;;;45.70;;
22677;SDS011;26259;50.214;18.620;2022-12-16T05:07:20;101.20;;;46.53;;
22677;SDS011;26259;50.214;18.620;2022-12-16T05:10:04;111.37;;;50.13;;
22677;SDS011;26259;50.214;18.620;2022-12-16T05:12:51;118.33;;;51.67;;
22677;SDS011;26259;50.214;18.620;2022-12-16T05:15:36;101.00;;;48.60;;
22677;SDS011;26259;50.214;18.620;2022-12-16T05:18:20;113.40;;;53.83;;
22677;SDS011;26259;50.214;18.620;2022-12-16T05:21:04;112.00;;;55.47;;
22677;SDS011;26259;50.214;18.620;2022-12-16T05:23:48;114.63;;;56.53;;
22677;SDS011;26259;50.214;18.620;2022-12-16T05:26:32;121.23;;;56.43;;
22677;SDS011;26259;50.214;18.620;2022-12-16T05:29:16;118.40;;;56.40;;
22677;SDS011;26259;50.214;18.620;2022-12-16T05:32:00;155.30;;;66.97;;
22677;SDS011;26259;50.214;18.620;2022-12-16T05:34:44;129.53;;;58.13;;
22677;SDS011;26259;50.214;18.620;2022-12-16T05:37:28;110.53;;;53.87;;
22677;SDS011;26259;50.214;18.620;2022-12-16T05:40:12;113.40;;;52.37;;
22677;SDS011;26259;50.214;18.620;2022-12-16T05:42:56;117.57;;;56.03;;
22677;SDS011;26259;50.214;18.620;2022-12-16T05:45:40;121.43;;;57.73;;
22677;SDS011;26259;50.214;18.620;2022-12-16T05:48:24;116.80;;;56.63;;
22677;SDS011;26259;50.214;18.620;2022-12-16T05:51:08;126.83;;;57.23;;
22677;SDS011;26259;50.214;18.620;2022-12-16T05:53:52;131.07;;;63.00;;
22677;SDS011;26259;50.214;18.620;2022-12-16T05:56:36;124.60;;;61.80;;
22677;SDS011;26259;50.214;18.620;2022-12-16T05:59:20;131.07;;;63.03;;
22677;SDS011;26259;50.214;18.620;2022-12-16T06:02:04;124.97;;;60.30;;
22677;SDS011;26259;50.214;18.620;2022-12-16T06:05:08;154.47;;;69.70;;
22677;SDS011;26259;50.214;18.620;2022-12-16T06:07:52;133.03;;;61.70;;
22677;SDS011;26259;50.214;18.620;2022-12-16T06:10:37;110.13;;;54.37;;
22677;SDS011;26259;50.214;18.620;2022-12-16T06:13:21;106.20;;;50.70;;
22677;SDS011;26259;50.214;18.620;2022-12-16T06:16:05;101.47;;;47.90;;
22677;SDS011;26259;50.214;18.620;2022-12-16T06:18:50;94.83;;;46.33;;
22677;SDS011;26259;50.214;18.620;2022-12-16T06:21:34;91.53;;;45.50;;
22677;SDS011;26259;50.214;18.620;2022-12-16T06:24:18;89.67;;;44.83;;
22677;SDS011;26259;50.214;18.620;2022-12-16T06:27:02;85.37;;;43.23;;
22677;SDS011;26259;50.214;18.620;2022-12-16T06:29:46;81.67;;;42.50;;
22677;SDS011;26259;50.214;18.620;2022-12-16T06:32:30;82.80;;;42.27;;
22677;SDS011;26259;50.214;18.620;2022-12-16T06:35:14;83.50;;;42.53;;
22677;SDS011;26259;50.214;18.620;2022-12-16T06:37:58;86.47;;;43.47;;
22677;SDS011;26259;50.214;18.620;2022-12-16T06:40:42;80.07;;;42.70;;
22677;SDS011;26259;50.214;18.620;2022-12-16T06:43:26;84.10;;;42.30;;
22677;SDS011;26259;50.214;18.620;2022-12-16T06:46:10;86.80;;;42.90;;
22677;SDS011;26259;50.214;18.620;2022-12-16T06:48:54;77.50;;;40.07;;
22677;SDS011;26259;50.214;18.620;2022-12-16T06:51:38;80.33;;;41.30;;
22677;SDS011;26259;50.214;18.620;2022-12-16T06:54:22;84.13;;;41.47;;
22677;SDS011;26259;50.214;18.620;2022-12-16T06:57:06;78.23;;;39.23;;
22677;SDS011;26259;50.214;18.620;2022-12-16T06:59:50;84.17;;;41.97;;
22677;SDS011;26259;50.214;18.620;2022-12-16T07:02:34;78.27;;;41.80;;
22677;SDS011;26259;50.214;18.620;2022-12-16T07:05:18;85.83;;;43.23;;
22677;SDS011;26259;50.214;18.620;2022-12-16T07:08:02;89.00;;;45.53;;
22677;SDS011;26259;50.214;18.620;2022-12-16T07:10:46;82.03;;;43.83;;
22677;SDS011;26259;50.214;18.620;2022-12-16T07:13:30;78.23;;;42.13;;
22677;SDS011;26259;50.214;18.620;2022-12-16T07:16:14;88.20;;;43.57;;
22677;SDS011;26259;50.214;18.620;2022-12-16T07:18:58;90.70;;;45.97;;
22677;SDS011;26259;50.214;18.620;2022-12-16T07:21:42;68.30;;;38.87;;
22677;SDS011;26259;50.214;18.620;2022-12-16T07:24:26;75.33;;;40.23;;
22677;SDS011;26259;50.214;18.620;2022-12-16T07:27:10;66.27;;;38.30;;
22677;SDS011;26259;50.214;18.620;2022-12-16T07:29:54;72.63;;;38.07;;
22677;SDS011;26259;50.214;18.620;2022-12-16T07:32:38;73.97;;;37.90;;
22677;SDS011;26259;50.214;18.620;2022-12-16T07:35:22;71.70;;;39.00;;
22677;SDS011;26259;50.214;18.620;2022-12-16T07:38:06;76.87;;;39.37;;
22677;SDS011;26259;50.214;18.620;2022-12-16T07:40:50;85.70;;;44.17;;
22677;SDS011;26259;50.214;18.620;2022-12-16T07:43:34;74.03;;;38.10;;
22677;SDS011;26259;50.214;18.620;2022-12-16T07:46:18;70.60;;;39.20;;
22677;SDS011;26259;50.214;18.620;2022-12-16T07:49:03;85.73;;;42.43;;
22677;SDS011;26259;50.214;18.620;2022-12-16T07:51:46;78.77;;;40.43;;
22677;SDS011;26259;50.214;18.620;2022-12-16T07:54:30;80.40;;;41.87;;
22677;SDS011;26259;50.214;18.620;2022-12-16T07:57:14;80.90;;;40.60;;
22677;SDS011;26259;50.214;18.620;2022-12-16T07:59:59;76.10;;;41.77;;
22677;SDS011;26259;50.214;18.620;2022-12-16T08:02:43;79.07;;;42.37;;
22677;SDS011;26259;50.214;18.620;2022-12-16T08:05:27;74.63;;;39.70;;
22677;SDS011;26259;50.214;18.620;2022-12-16T08:08:11;77.60;;;41.50;;
22677;SDS011;26259;50.214;18.620;2022-12-16T08:10:55;78.33;;;41.37;;
22677;SDS011;26259;50.214;18.620;2022-12-16T08:13:39;74.67;;;39.47;;
22677;SDS011;26259;50.214;18.620;2022-12-16T08:16:23;68.47;;;38.03;;
22677;SDS011;26259;50.214;18.620;2022-12-16T08:19:07;77.20;;;40.30;;
22677;SDS011;26259;50.214;18.620;2022-12-16T08:21:51;71.33;;;38.43;;
22677;SDS011;26259;50.214;18.620;2022-12-16T08:24:35;75.20;;;39.07;;
22677;SDS011;26259;50.214;18.620;2022-12-16T08:27:19;72.97;;;40.67;;
22677;SDS011;26259;50.214;18.620;2022-12-16T08:30:04;74.70;;;40.57;;
22677;SDS011;26259;50.214;18.620;2022-12-16T08:32:48;74.63;;;39.63;;
22677;SDS011;26259;50.214;18.620;2022-12-16T08:35:32;76.83;;;41.17;;
22677;SDS011;26259;50.214;18.620;2022-12-16T08:38:16;81.63;;;41.63;;
22677;SDS011;26259;50.214;18.620;2022-12-16T08:41:00;77.73;;;41.07;;
22677;SDS011;26259;50.214;18.620;2022-12-16T08:43:44;79.40;;;42.20;;
22677;SDS011;26259;50.214;18.620;2022-12-16T08:46:28;77.37;;;41.10;;
22677;SDS011;26259;50.214;18.620;2022-12-16T08:49:12;71.47;;;39.50;;
22677;SDS011;26259;50.214;18.620;2022-12-16T08:51:57;85.07;;;41.43;;
22677;SDS011;26259;50.214;18.620;2022-12-16T08:54:42;72.43;;;39.60;;
22677;SDS011;26259;50.214;18.620;2022-12-16T08:57:26;83.67;;;43.30;;
22677;SDS011;26259;50.214;18.620;2022-12-16T09:00:10;84.53;;;43.63;;
22677;SDS011;26259;50.214;18.620;2022-12-16T09:02:55;83.37;;;42.60;;
22677;SDS011;26259;50.214;18.620;2022-12-16T09:05:42;78.97;;;42.07;;
22677;SDS011;26259;50.214;18.620;2022-12-16T09:08:27;79.77;;;43.27;;
22677;SDS011;26259;50.214;18.620;2022-12-16T09:11:11;92.70;;;44.30;;
22677;SDS011;26259;50.214;18.620;2022-12-16T09:13:56;88.53;;;41.53;;
22677;SDS011;26259;50.214;18.620;2022-12-16T09:16:40;87.60;;;42.30;;
22677;SDS011;26259;50.214;18.620;2022-12-16T09:19:24;84.77;;;42.73;;
22677;SDS011;26259;50.214;18.620;2022-12-16T09:22:08;87.93;;;42.57;;
22677;SDS011;26259;50.214;18.620;2022-12-16T09:24:52;86.80;;;42.90;;
22677;SDS011;26259;50.214;18.620;2022-12-16T09:27:36;85.47;;;42.17;;
22677;SDS011;26259;50.214;18.620;2022-12-16T09:30:21;89.03;;;44.03;;
22677;SDS011;26259;50.214;18.620;2022-12-16T09:33:05;82.63;;;41.97;;
22677;SDS011;26259;50.214;18.620;2022-12-16T09:35:49;78.40;;;39.33;;
22677;SDS011;26259;50.214;18.620;2022-12-16T09:38:33;74.23;;;39.37;;
22677;SDS011;26259;50.214;18.620;2022-12-16T09:44:23;90.23;;;46.33;;
22677;SDS011;26259;50.214;18.620;2022-12-16T09:47:37;84.77;;;41.97;;
22677;SDS011;26259;50.214;18.620;2022-12-16T09:50:32;86.73;;;44.80;;
22677;SDS011;26259;50.214;18.620;2022-12-16T09:53:20;87.83;;;43.47;;
22677;SDS011;26259;50.214;18.620;2022-12-16T09:56:06;72.53;;;39.67;;
22677;SDS011;26259;50.214;18.620;2022-12-16T09:59:00;76.30;;;39.20;;
22677;SDS011;26259;50.214;18.620;2022-12-16T10:01:47;71.43;;;37.47;;
22677;SDS011;26259;50.214;18.620;2022-12-16T10:04:32;69.63;;;40.57;;
22677;SDS011;26259;50.214;18.620;2022-12-16T10:07:18;70.00;;;36.13;;
22677;SDS011;26259;50.214;18.620;2022-12-16T10:13:11;72.00;;;37.37;;
22677;SDS011;26259;50.214;18.620;2022-12-16T10:19:26;70.93;;;37.37;;
22677;SDS011;26259;50.214;18.620;2022-12-16T10:22:38;68.53;;;37.57;;
22677;SDS011;26259;50.214;18.620;2022-12-16T10:25:25;76.83;;;39.73;;
22677;SDS011;26259;50.214;18.620;2022-12-16T10:28:26;79.33;;;41.83;;
22677;SDS011;26259;50.214;18.620;2022-12-16T10:31:23;75.93;;;41.13;;
22677;SDS011;26259;50.214;18.620;2022-12-16T10:34:15;84.77;;;43.63;;
22677;SDS011;26259;50.214;18.620;2022-12-16T10:37:02;78.93;;;40.93;;
22677;SDS011;26259;50.214;18.620;2022-12-16T10:39:50;76.10;;;40.10;;
22677;SDS011;26259;50.214;18.620;2022-12-16T10:42:40;75.23;;;40.70;;
22677;SDS011;26259;50.214;18.620;2022-12-16T10:45:33;68.73;;;38.97;;
22677;SDS011;26259;50.214;18.620;2022-12-16T10:48:26;68.57;;;37.50;;
22677;SDS011;26259;50.214;18.620;2022-12-16T10:51:12;67.60;;;36.00;;
22677;SDS011;26259;50.214;18.620;2022-12-16T10:54:04;64.20;;;35.07;;
22677;SDS011;26259;50.214;18.620;2022-12-16T11:00:15;62.87;;;34.10;;
22677;SDS011;26259;50.214;18.620;2022-12-16T11:03:21;66.90;;;35.37;;
22677;SDS011;26259;50.214;18.620;2022-12-16T11:06:07;64.40;;;34.80;;
22677;SDS011;26259;50.214;18.620;2022-12-16T11:08:52;71.43;;;35.10;;
22677;SDS011;26259;50.214;18.620;2022-12-16T11:11:36;65.27;;;34.63;;
22677;SDS011;26259;50.214;18.620;2022-12-16T11:14:27;72.43;;;37.60;;
22677;SDS011;26259;50.214;18.620;2022-12-16T11:17:18;59.87;;;31.90;;
22677;SDS011;26259;50.214;18.620;2022-12-16T11:23:14;62.43;;;33.67;;
22677;SDS011;26259;50.214;18.620;2022-12-16T11:26:09;58.10;;;32.13;;
22677;SDS011;26259;50.214;18.620;2022-12-16T11:32:40;65.50;;;35.27;;
22677;SDS011;26259;50.214;18.620;2022-12-16T11:35:03;64.73;;;35.03;;
22677;SDS011;26259;50.214;18.620;2022-12-16T11:37:52;61.90;;;33.97;;
22677;SDS011;26259;50.214;18.620;2022-12-16T11:40:37;62.23;;;33.30;;
22677;SDS011;26259;50.214;18.620;2022-12-16T11:43:39;56.90;;;32.87;;
22677;SDS011;26259;50.214;18.620;2022-12-16T11:46:28;55.57;;;31.10;;
22677;SDS011;26259;50.214;18.620;2022-12-16T11:49:19;59.93;;;31.47;;
22677;SDS011;26259;50.214;18.620;2022-12-16T11:52:15;60.50;;;33.80;;
22677;SDS011;26259;50.214;18.620;2022-12-16T11:58:20;65.80;;;34.33;;
22677;SDS011;26259;50.214;18.620;2022-12-16T12:01:18;60.53;;;33.30;;
22677;SDS011;26259;50.214;18.620;2022-12-16T12:04:05;64.17;;;34.20;;
22677;SDS011;26259;50.214;18.620;2022-12-16T12:10:06;61.63;;;33.30;;
22677;SDS011;26259;50.214;18.620;2022-12-16T12:13:05;60.73;;;33.17;;
22677;SDS011;26259;50.214;18.620;2022-12-16T12:16:06;61.23;;;33.47;;
22677;SDS011;26259;50.214;18.620;2022-12-16T12:18:59;62.50;;;33.47;;
22677;SDS011;26259;50.214;18.620;2022-12-16T12:31:01;66.67;;;35.13;;
22677;SDS011;26259;50.214;18.620;2022-12-16T12:37:25;62.33;;;35.27;;
22677;SDS011;26259;50.214;18.620;2022-12-16T12:50:20;71.80;;;36.90;;
22677;SDS011;26259;50.214;18.620;2022-12-16T12:53:29;70.73;;;35.63;;
22677;SDS011;26259;50.214;18.620;2022-12-16T12:59:30;71.70;;;37.87;;
22677;SDS011;26259;50.214;18.620;2022-12-16T13:02:21;79.40;;;40.60;;
22677;SDS011;26259;50.214;18.620;2022-12-16T13:05:10;77.30;;;41.47;;
22677;SDS011;26259;50.214;18.620;2022-12-16T13:11:19;87.40;;;45.67;;
22677;SDS011;26259;50.214;18.620;2022-12-16T13:14:42;85.33;;;45.87;;
22677;SDS011;26259;50.214;18.620;2022-12-16T13:17:13;85.40;;;45.37;;
22677;SDS011;26259;50.214;18.620;2022-12-16T13:19:58;86.30;;;48.33;;
22677;SDS011;26259;50.214;18.620;2022-12-16T13:22:43;84.43;;;47.07;;
22677;SDS011;26259;50.214;18.620;2022-12-16T13:28:25;92.40;;;50.53;;
22677;SDS011;26259;50.214;18.620;2022-12-16T13:31:14;96.27;;;50.80;;
22677;SDS011;26259;50.214;18.620;2022-12-16T13:37:00;98.87;;;49.80;;
22677;SDS011;26259;50.214;18.620;2022-12-16T13:39:58;97.17;;;51.73;;
22677;SDS011;26259;50.214;18.620;2022-12-16T13:45:39;97.57;;;51.67;;
22677;SDS011;26259;50.214;18.620;2022-12-16T13:48:45;100.57;;;50.90;;
22677;SDS011;26259;50.214;18.620;2022-12-16T13:54:22;108.40;;;55.63;;
22677;SDS011;26259;50.214;18.620;2022-12-16T13:57:12;98.67;;;51.93;;
22677;SDS011;26259;50.214;18.620;2022-12-16T14:00:00;100.47;;;51.50;;
22677;SDS011;26259;50.214;18.620;2022-12-16T14:03:04;104.50;;;51.80;;
22677;SDS011;26259;50.214;18.620;2022-12-16T14:06:00;102.47;;;52.90;;
22677;SDS011;26259;50.214;18.620;2022-12-16T14:08:46;114.13;;;57.77;;
22677;SDS011;26259;50.214;18.620;2022-12-16T14:11:41;115.60;;;58.60;;
22677;SDS011;26259;50.214;18.620;2022-12-16T14:14:50;116.53;;;56.23;;
22677;SDS011;26259;50.214;18.620;2022-12-16T14:17:47;108.53;;;57.57;;
22677;SDS011;26259;50.214;18.620;2022-12-16T14:20:48;113.80;;;57.13;;
22677;SDS011;26259;50.214;18.620;2022-12-16T14:23:51;117.47;;;55.40;;
22677;SDS011;26259;50.214;18.620;2022-12-16T14:26:42;128.33;;;59.60;;
22677;SDS011;26259;50.214;18.620;2022-12-16T14:29:30;117.93;;;59.43;;
22677;SDS011;26259;50.214;18.620;2022-12-16T14:35:12;115.50;;;56.60;;
22677;SDS011;26259;50.214;18.620;2022-12-16T14:41:14;120.07;;;59.93;;
22677;SDS011;26259;50.214;18.620;2022-12-16T14:43:59;113.53;;;57.77;;
22677;SDS011;26259;50.214;18.620;2022-12-16T14:46:51;117.77;;;58.47;;
22677;SDS011;26259;50.214;18.620;2022-12-16T14:49:36;111.90;;;55.27;;
22677;SDS011;26259;50.214;18.620;2022-12-16T14:52:32;111.43;;;54.10;;
22677;SDS011;26259;50.214;18.620;2022-12-16T14:55:26;116.10;;;57.13;;
22677;SDS011;26259;50.214;18.620;2022-12-16T14:58:15;106.40;;;54.33;;
22677;SDS011;26259;50.214;18.620;2022-12-16T15:01:06;109.83;;;53.73;;
22677;SDS011;26259;50.214;18.620;2022-12-16T15:03:57;108.37;;;54.23;;
22677;SDS011;26259;50.214;18.620;2022-12-16T15:06:44;122.43;;;57.10;;
22677;SDS011;26259;50.214;18.620;2022-12-16T15:12:26;112.30;;;57.97;;
22677;SDS011;26259;50.214;18.620;2022-12-16T15:15:15;113.30;;;54.73;;
22677;SDS011;26259;50.214;18.620;2022-12-16T15:18:21;113.57;;;54.27;;
22677;SDS011;26259;50.214;18.620;2022-12-16T15:21:13;107.57;;;52.07;;
22677;SDS011;26259;50.214;18.620;2022-12-16T15:23:57;111.17;;;53.83;;
22677;SDS011;26259;50.214;18.620;2022-12-16T15:26:44;120.03;;;59.17;;
22677;SDS011;26259;50.214;18.620;2022-12-16T15:29:38;124.60;;;59.77;;
22677;SDS011;26259;50.214;18.620;2022-12-16T15:35:59;125.03;;;60.23;;
22677;SDS011;26259;50.214;18.620;2022-12-16T15:40:58;120.57;;;58.60;;
22677;SDS011;26259;50.214;18.620;2022-12-16T15:43:44;123.70;;;59.57;;
22677;SDS011;26259;50.214;18.620;2022-12-16T15:46:45;121.77;;;59.20;;
22677;SDS011;26259;50.214;18.620;2022-12-16T15:49:31;136.53;;;62.47;;
22677;SDS011;26259;50.214;18.620;2022-12-16T15:58:15;133.27;;;63.27;;
22677;SDS011;26259;50.214;18.620;2022-12-16T16:01:13;138.17;;;62.93;;
22677;SDS011;26259;50.214;18.620;2022-12-16T16:03:59;136.03;;;61.63;;
22677;SDS011;26259;50.214;18.620;2022-12-16T16:06:48;143.10;;;64.13;;
22677;SDS011;26259;50.214;18.620;2022-12-16T16:09:37;130.80;;;61.83;;
22677;SDS011;26259;50.214;18.620;2022-12-16T16:12:22;136.70;;;61.57;;
22677;SDS011;26259;50.214;18.620;2022-12-16T16:15:08;130.47;;;62.20;;
22677;SDS011;26259;50.214;18.620;2022-12-16T16:17:54;124.20;;;59.17;;
22677;SDS011;26259;50.214;18.620;2022-12-16T16:20:48;119.03;;;55.87;;
22677;SDS011;26259;50.214;18.620;2022-12-16T16:23:34;127.57;;;59.33;;
22677;SDS011;26259;50.214;18.620;2022-12-16T16:26:20;122.37;;;59.67;;
22677;SDS011;26259;50.214;18.620;2022-12-16T16:29:05;125.00;;;59.27;;
22677;SDS011;26259;50.214;18.620;2022-12-16T16:31:52;133.87;;;61.63;;
22677;SDS011;26259;50.214;18.620;2022-12-16T16:34:36;141.33;;;63.43;;
22677;SDS011;26259;50.214;18.620;2022-12-16T16:37:20;129.33;;;62.93;;
22677;SDS011;26259;50.214;18.620;2022-12-16T16:40:11;130.10;;;59.60;;
22677;SDS011;26259;50.214;18.620;2022-12-16T16:43:00;139.33;;;61.70;;
22677;SDS011;26259;50.214;18.620;2022-12-16T16:45:46;131.67;;;62.37;;
22677;SDS011;26259;50.214;18.620;2022-12-16T16:48:36;127.20;;;61.00;;
22677;SDS011;26259;50.214;18.620;2022-12-16T16:51:41;121.90;;;57.00;;
22677;SDS011;26259;50.214;18.620;2022-12-16T16:54:25;121.07;;;57.03;;
22677;SDS011;26259;50.214;18.620;2022-12-16T16:57:09;119.03;;;55.77;;
22677;SDS011;26259;50.214;18.620;2022-12-16T16:59:53;109.43;;;51.07;;
22677;SDS011;26259;50.214;18.620;2022-12-16T17:02:37;118.90;;;54.37;;
22677;SDS011;26259;50.214;18.620;2022-12-16T17:05:21;106.73;;;51.47;;
22677;SDS011;26259;50.214;18.620;2022-12-16T17:08:05;115.97;;;51.17;;
22677;SDS011;26259;50.214;18.620;2022-12-16T17:10:49;114.87;;;58.13;;
22677;SDS011;26259;50.214;18.620;2022-12-16T17:13:33;104.63;;;51.07;;
22677;SDS011;26259;50.214;18.620;2022-12-16T17:16:17;109.53;;;53.83;;